createdAt,value
2024-04-24T00:01:39.120Z,37.77
2024-04-24T00:04:24.615Z,35.20
2024-04-24T00:07:10.075Z,37.40
2024-04-24T00:09:55.503Z,40.30
2024-04-24T00:12:41.511Z,39.60
2024-04-24T00:15:27.066Z,37.57
2024-04-24T00:18:12.551Z,45.50
2024-04-24T00:20:57.988Z,36.83
2024-04-24T00:23:43.375Z,34.73
2024-04-24T00:26:29.161Z,34.97
2024-04-24T00:29:14.598Z,33.93
2024-04-24T00:32:00.020Z,35.07
2024-04-24T00:34:45.216Z,35.00
2024-04-24T00:37:30.573Z,33.03
2024-04-24T00:40:15.837Z,35.07
2024-04-24T00:43:01.163Z,32.67
2024-04-24T00:45:48.076Z,32.30
2024-04-24T00:48:33.764Z,34.73
2024-04-24T00:51:20.643Z,31.17
2024-04-24T00:54:07.020Z,28.87
2024-04-24T00:56:52.541Z,30.77
2024-04-24T00:59:38.191Z,30.10
2024-04-24T01:02:23.339Z,30.70
2024-04-24T01:05:08.991Z,27.97
2024-04-24T01:07:54.570Z,26.07
2024-04-24T01:10:40.050Z,29.27
2024-04-24T01:13:26.147Z,28.13
2024-04-24T01:16:18.492Z,30.03
2024-04-24T01:19:09.189Z,26.83
2024-04-24T01:22:26.443Z,29.10
2024-04-24T01:25:36.333Z,26.27
2024-04-24T01:28:22.685Z,25.47
2024-04-24T01:31:08.194Z,27.13
2024-04-24T01:33:53.618Z,23.87
2024-04-24T01:36:38.968Z,26.57
2024-04-24T01:39:24.150Z,22.20
2024-04-24T01:42:09.621Z,28.13
2024-04-24T01:44:54.544Z,23.70
2024-04-24T01:47:40.119Z,24.70
2024-04-24T01:50:25.476Z,24.87
2024-04-24T01:53:10.947Z,24.27
2024-04-24T01:55:56.322Z,25.07
2024-04-24T01:58:41.646Z,25.43
2024-04-24T02:01:26.941Z,25.57
2024-04-24T02:04:12.376Z,24.00
2024-04-24T02:06:57.710Z,22.63
2024-04-24T02:09:42.629Z,24.80
2024-04-24T02:12:28.342Z,22.87
2024-04-24T02:15:13.815Z,25.90
2024-04-24T02:18:06.431Z,25.13
2024-04-24T02:20:51.819Z,24.27
2024-04-24T02:23:37.103Z,23.57
2024-04-24T02:26:22.443Z,24.13
2024-04-24T02:29:07.664Z,24.63
2024-04-24T02:31:53.019Z,22.53
2024-04-24T02:34:38.395Z,21.90
2024-04-24T02:37:23.868Z,23.60
2024-04-24T02:40:09.390Z,22.20
2024-04-24T02:42:54.844Z,22.37
2024-04-24T02:45:40.151Z,21.73
2024-04-24T02:48:25.511Z,22.27
2024-04-24T02:51:11.307Z,20.97
2024-04-24T02:53:56.367Z,24.53
2024-04-24T02:56:41.726Z,22.60
2024-04-24T02:59:27.158Z,19.67
2024-04-24T03:02:12.463Z,22.47
2024-04-24T03:04:57.905Z,24.00
2024-04-24T03:07:43.319Z,19.10
2024-04-24T03:10:28.832Z,22.10
2024-04-24T03:13:14.191Z,23.67
2024-04-24T03:15:59.751Z,19.77
2024-04-24T03:18:45.044Z,20.00
2024-04-24T03:21:30.480Z,22.23
2024-04-24T03:24:16.127Z,19.50
2024-04-24T03:27:01.457Z,21.73
2024-04-24T03:29:47.049Z,20.00
2024-04-24T03:32:32.570Z,19.47
2024-04-24T03:35:17.738Z,20.00
2024-04-24T03:38:03.273Z,19.70
2024-04-24T03:40:48.641Z,18.60
2024-04-24T03:43:34.190Z,19.30
2024-04-24T03:46:19.595Z,20.30
2024-04-24T03:49:05.062Z,18.47
2024-04-24T03:51:50.399Z,16.23
2024-04-24T03:54:35.867Z,18.97
2024-04-24T03:57:21.445Z,15.53
2024-04-24T04:00:07.608Z,21.70
2024-04-24T04:02:52.812Z,18.70
2024-04-24T04:05:38.532Z,16.33
2024-04-24T04:08:23.924Z,17.30
2024-04-24T04:11:09.460Z,15.87
2024-04-24T04:13:54.806Z,16.23
2024-04-24T04:16:39.996Z,18.43
2024-04-24T04:19:25.406Z,17.43
2024-04-24T04:22:10.760Z,14.83
2024-04-24T04:24:56.300Z,18.90
2024-04-24T04:27:41.543Z,13.93
2024-04-24T04:30:27.208Z,17.47
2024-04-24T04:33:12.667Z,20.43
2024-04-24T04:35:58.143Z,18.87
2024-04-24T04:38:43.585Z,18.03
2024-04-24T04:41:28.917Z,24.90
2024-04-24T04:44:14.441Z,15.47
2024-04-24T04:46:59.855Z,13.23
2024-04-24T04:49:45.177Z,16.33
2024-04-24T04:52:31.187Z,16.37
2024-04-24T04:55:16.580Z,14.73
2024-04-24T04:58:02.044Z,16.20
2024-04-24T05:00:47.398Z,17.90
2024-04-24T05:03:32.772Z,16.23
2024-04-24T05:06:18.176Z,14.93
2024-04-24T05:09:03.645Z,15.97
2024-04-24T05:11:49.237Z,14.83
2024-04-24T05:14:34.450Z,17.27
2024-04-24T05:17:19.897Z,19.47
2024-04-24T05:20:06.384Z,19.33
2024-04-24T05:22:51.530Z,18.37
2024-04-24T05:25:36.931Z,16.63
2024-04-24T05:28:22.423Z,15.70
2024-04-24T05:31:07.948Z,14.87
2024-04-24T05:33:53.431Z,19.50
2024-04-24T05:36:38.726Z,21.73
2024-04-24T05:39:24.176Z,15.90
2024-04-24T05:42:09.432Z,21.97
2024-04-24T05:44:54.628Z,14.23
2024-04-24T05:47:40.160Z,16.97
2024-04-24T05:50:25.511Z,21.03
2024-04-24T05:53:11.095Z,15.67
2024-04-24T05:55:56.508Z,13.60
2024-04-24T05:58:41.884Z,20.13
2024-04-24T06:01:27.228Z,13.27
2024-04-24T06:04:12.821Z,15.93
2024-04-24T06:06:58.234Z,15.50
2024-04-24T06:09:43.501Z,16.73
2024-04-24T06:12:28.945Z,17.27
2024-04-24T06:15:14.326Z,16.70
2024-04-24T06:17:59.858Z,13.37
2024-04-24T06:20:45.170Z,16.63
2024-04-24T06:23:30.810Z,16.07
2024-04-24T06:26:16.170Z,14.00
2024-04-24T06:29:01.473Z,17.00
2024-04-24T06:31:46.624Z,15.60
2024-04-24T06:34:31.865Z,16.60
2024-04-24T06:37:17.353Z,17.10
2024-04-24T06:40:02.738Z,15.90
2024-04-24T06:42:50.003Z,17.23
2024-04-24T06:45:35.284Z,17.57
2024-04-24T06:48:20.344Z,16.07
2024-04-24T06:51:05.724Z,15.33
2024-04-24T06:53:51.012Z,14.03
2024-04-24T06:56:37.896Z,15.27
2024-04-24T06:59:24.473Z,13.90
2024-04-24T07:02:09.589Z,15.23
2024-04-24T07:04:54.892Z,15.00
2024-04-24T07:07:40.311Z,15.20
2024-04-24T07:10:25.679Z,15.03
2024-04-24T07:13:11.037Z,11.53
2024-04-24T07:15:56.400Z,16.13
2024-04-24T07:18:41.690Z,55.93
2024-04-24T07:21:26.981Z,20.43
2024-04-24T07:24:12.547Z,14.33
2024-04-24T07:26:57.865Z,14.60
2024-04-24T07:29:43.152Z,16.40
2024-04-24T07:32:28.545Z,17.33
2024-04-24T07:35:14.954Z,13.03
2024-04-24T07:38:01.188Z,12.43
2024-04-24T07:40:46.636Z,16.00
2024-04-24T07:43:33.457Z,15.90
2024-04-24T07:46:18.627Z,12.90
2024-04-24T07:49:04.329Z,14.40
2024-04-24T07:51:49.751Z,15.77
2024-04-24T07:54:35.112Z,15.37
2024-04-24T07:57:20.583Z,15.67
2024-04-24T08:00:06.705Z,15.53
2024-04-24T08:02:52.175Z,13.23
2024-04-24T08:05:37.510Z,16.60
2024-04-24T08:08:23.075Z,18.73
2024-04-24T08:11:08.538Z,12.87
2024-04-24T08:13:53.881Z,14.83
2024-04-24T08:16:39.435Z,17.30
2024-04-24T08:19:24.954Z,17.70
2024-04-24T08:22:10.598Z,14.63
2024-04-24T08:24:56.114Z,14.83
2024-04-24T08:27:41.751Z,15.90
2024-04-24T08:30:27.178Z,15.53
2024-04-24T08:33:12.467Z,13.13
2024-04-24T08:36:05.116Z,15.07
2024-04-24T08:38:50.247Z,14.03
2024-04-24T08:41:35.641Z,17.30
2024-04-24T08:44:21.403Z,15.63
2024-04-24T08:47:06.753Z,65.50
2024-04-24T08:49:52.273Z,17.67
2024-04-24T08:52:43.554Z,16.07
2024-04-24T08:55:30.068Z,15.30
2024-04-24T08:58:21.517Z,14.63
2024-04-24T09:01:14.080Z,12.43
2024-04-24T09:04:06.046Z,15.23
2024-04-24T09:06:52.409Z,16.70
2024-04-24T09:09:37.955Z,16.13
2024-04-24T09:12:25.244Z,18.03
2024-04-24T09:15:10.320Z,17.20
2024-04-24T09:17:56.134Z,17.30
2024-04-24T09:20:41.564Z,19.13
2024-04-24T09:23:26.853Z,14.27
2024-04-24T09:26:13.272Z,14.63
2024-04-24T09:28:58.773Z,13.43
2024-04-24T09:31:44.418Z,16.67
2024-04-24T09:34:29.777Z,17.27
2024-04-24T09:37:15.520Z,14.13
2024-04-24T09:40:03.872Z,13.37
2024-04-24T09:42:49.610Z,13.07
2024-04-24T09:45:35.021Z,15.03
2024-04-24T09:48:24.550Z,12.77
2024-04-24T09:51:12.347Z,13.43
2024-04-24T09:53:57.781Z,16.03
2024-04-24T09:56:44.724Z,15.50
2024-04-24T09:59:32.352Z,15.07
2024-04-24T10:02:21.046Z,14.67
2024-04-24T10:05:17.053Z,14.87
2024-04-24T10:08:05.384Z,14.27
2024-04-24T10:10:54.224Z,13.37
2024-04-24T10:13:42.683Z,17.90
2024-04-24T10:16:29.294Z,11.47
2024-04-24T10:19:16.168Z,12.17
2024-04-24T10:22:02.248Z,13.67
2024-04-24T10:24:49.044Z,12.10
2024-04-24T10:27:36.583Z,11.53
2024-04-24T10:30:23.820Z,14.07
2024-04-24T10:33:09.778Z,13.30
2024-04-24T10:35:55.040Z,16.90
2024-04-24T10:38:44.290Z,16.30
2024-04-24T10:41:30.234Z,14.23
2024-04-24T10:44:16.960Z,14.20
2024-04-24T10:47:02.507Z,16.63
2024-04-24T10:49:54.933Z,13.63
2024-04-24T10:52:47.432Z,15.67
2024-04-24T10:55:33.103Z,10.47
2024-04-24T10:58:21.953Z,9.47
2024-04-24T11:01:07.301Z,7.73
2024-04-24T11:03:53.157Z,6.77
2024-04-24T11:06:38.800Z,12.67
2024-04-24T11:09:25.141Z,11.67
2024-04-24T11:12:10.927Z,10.00
2024-04-24T11:14:56.972Z,12.63
2024-04-24T11:17:44.204Z,9.60
2024-04-24T11:20:29.668Z,12.07
2024-04-24T11:23:15.029Z,12.50
2024-04-24T11:26:00.650Z,18.67
2024-04-24T11:28:45.854Z,12.70
2024-04-24T11:31:44.012Z,12.20
2024-04-24T11:34:29.505Z,14.73
2024-04-24T11:37:15.540Z,15.57
2024-04-24T11:40:01.026Z,10.33
2024-04-24T11:42:47.528Z,7.87
2024-04-24T11:45:32.991Z,8.40
2024-04-24T11:48:25.261Z,10.50
2024-04-24T11:51:14.752Z,8.83
2024-04-24T11:54:01.156Z,12.47
2024-04-24T11:56:46.761Z,7.63
2024-04-24T11:59:32.054Z,10.70
2024-04-24T12:02:18.283Z,9.20
2024-04-24T12:05:05.018Z,9.67
2024-04-24T12:07:50.686Z,8.70
2024-04-24T12:10:36.177Z,9.33
2024-04-24T12:13:21.738Z,11.80
2024-04-24T12:16:07.269Z,8.97
2024-04-24T12:18:52.658Z,10.83
2024-04-24T12:21:38.080Z,9.50
2024-04-24T12:24:23.773Z,14.77
2024-04-24T12:27:09.412Z,9.47
2024-04-24T12:29:54.728Z,11.13
2024-04-24T12:32:40.851Z,4.60
2024-04-24T12:35:25.961Z,3.17
2024-04-24T12:38:11.339Z,3.73
2024-04-24T12:40:56.778Z,7.50
2024-04-24T12:43:41.982Z,2.43
2024-04-24T12:46:27.428Z,1.60
2024-04-24T12:49:12.905Z,2.17
2024-04-24T12:51:58.347Z,7.57
2024-04-24T12:54:43.629Z,1.97
2024-04-24T12:57:29.019Z,4.30
2024-04-24T13:00:17.608Z,3.37
2024-04-24T13:03:04.986Z,5.43
2024-04-24T13:05:50.583Z,4.23
2024-04-24T13:08:35.993Z,3.53
2024-04-24T13:11:21.494Z,1.97
2024-04-24T13:14:06.934Z,8.40
2024-04-24T13:16:52.249Z,5.17
2024-04-24T13:19:37.888Z,5.20
2024-04-24T13:22:23.285Z,8.63
2024-04-24T13:25:08.540Z,8.50
2024-04-24T13:27:53.929Z,7.77
2024-04-24T13:30:38.963Z,10.23
2024-04-24T13:33:24.511Z,9.27
2024-04-24T13:36:09.886Z,8.40
2024-04-24T13:38:55.365Z,6.57
2024-04-24T13:41:41.365Z,6.60
2024-04-24T13:44:26.709Z,8.13
2024-04-24T13:47:12.001Z,10.00
2024-04-24T13:49:57.544Z,5.47
2024-04-24T13:52:42.829Z,5.80
2024-04-24T13:55:28.039Z,6.20
2024-04-24T13:58:13.304Z,3.53
2024-04-24T14:00:58.699Z,4.73
2024-04-24T14:03:44.184Z,7.53
2024-04-24T14:06:30.587Z,7.13
2024-04-24T14:09:16.183Z,6.70
2024-04-24T14:12:01.498Z,8.90
2024-04-24T14:14:46.909Z,5.57
2024-04-24T14:17:32.398Z,6.93
2024-04-24T14:20:17.895Z,9.83
2024-04-24T14:23:03.767Z,5.30
2024-04-24T14:25:49.071Z,3.50
2024-04-24T14:28:34.674Z,2.73
2024-04-24T14:31:20.027Z,6.07
2024-04-24T14:34:05.375Z,5.43
2024-04-24T14:36:51.104Z,5.80
2024-04-24T14:39:36.407Z,4.00
2024-04-24T14:42:21.823Z,4.93
2024-04-24T14:45:07.000Z,5.60
2024-04-24T14:47:52.601Z,6.67
2024-04-24T14:50:38.034Z,7.50
2024-04-24T14:53:23.315Z,6.67
2024-04-24T14:56:09.013Z,8.43
2024-04-24T14:58:55.005Z,4.37
2024-04-24T15:01:40.321Z,4.37
2024-04-24T15:04:25.816Z,5.30
2024-04-24T15:07:11.228Z,4.90
2024-04-24T15:09:57.672Z,15.60
2024-04-24T15:12:42.805Z,8.60
2024-04-24T15:15:28.286Z,8.97
2024-04-24T15:18:13.987Z,7.17
2024-04-24T15:20:59.391Z,6.67
2024-04-24T15:23:45.499Z,10.43
2024-04-24T15:26:30.870Z,10.90
2024-04-24T15:29:16.536Z,5.17
2024-04-24T15:32:02.024Z,5.03
2024-04-24T15:34:47.538Z,4.50
2024-04-24T15:37:32.941Z,4.30
2024-04-24T15:40:18.062Z,6.00
2024-04-24T15:43:03.650Z,4.47
2024-04-24T15:45:48.996Z,7.10
2024-04-24T15:48:38.082Z,3.97
2024-04-24T15:51:23.137Z,4.90
2024-04-24T15:54:08.591Z,6.40
2024-04-24T15:56:53.923Z,6.30
2024-04-24T15:59:39.402Z,3.47
2024-04-24T16:02:24.785Z,4.90
2024-04-24T16:05:09.910Z,1.40
2024-04-24T16:07:55.538Z,2.93
2024-04-24T16:10:40.781Z,4.13
2024-04-24T16:13:26.331Z,2.30
2024-04-24T16:16:14.422Z,2.87
2024-04-24T16:19:00.064Z,1.97
2024-04-24T16:21:45.506Z,1.90
2024-04-24T16:24:30.425Z,2.83
2024-04-24T16:27:16.112Z,2.17
2024-04-24T16:30:01.482Z,2.50
2024-04-24T16:32:46.997Z,2.00
2024-04-24T16:35:32.297Z,2.63
2024-04-24T16:38:20.544Z,2.43
2024-04-24T16:41:06.298Z,3.40
2024-04-24T16:43:53.150Z,3.33
2024-04-24T16:46:38.426Z,3.17
2024-04-24T16:49:23.961Z,4.80
2024-04-24T16:52:10.865Z,5.37
2024-04-24T16:54:56.148Z,6.03
2024-04-24T16:57:41.422Z,7.87
2024-04-24T17:00:26.995Z,7.27
2024-04-24T17:03:12.549Z,6.30
2024-04-24T17:05:57.705Z,5.93
2024-04-24T17:08:43.241Z,4.23
2024-04-24T17:11:28.518Z,6.90
2024-04-24T17:14:14.068Z,5.93
2024-04-24T17:16:59.670Z,6.10
2024-04-24T17:19:44.932Z,7.90
2024-04-24T17:22:30.417Z,6.50
2024-04-24T17:25:15.803Z,8.03
2024-04-24T17:28:01.214Z,7.77
2024-04-24T17:30:46.548Z,8.90
2024-04-24T17:33:31.924Z,7.20
2024-04-24T17:36:17.280Z,9.57
2024-04-24T17:39:02.648Z,10.23
2024-04-24T17:41:48.096Z,8.83
2024-04-24T17:44:33.654Z,9.53
2024-04-24T17:47:18.992Z,9.53
2024-04-24T17:50:04.670Z,8.37
2024-04-24T17:52:50.546Z,11.07
2024-04-24T17:55:35.866Z,10.60
2024-04-24T17:58:21.367Z,11.50
2024-04-24T18:01:06.941Z,9.93
2024-04-24T18:03:52.267Z,9.40
2024-04-24T18:06:37.761Z,9.20
2024-04-24T18:09:23.332Z,9.00
2024-04-24T18:12:08.802Z,11.57
2024-04-24T18:14:54.719Z,10.87
2024-04-24T18:17:40.497Z,12.77
2024-04-24T18:20:25.868Z,12.83
2024-04-24T18:23:10.984Z,15.57
2024-04-24T18:25:56.419Z,9.93
2024-04-24T18:28:41.875Z,9.93
2024-04-24T18:31:27.325Z,14.10
2024-04-24T18:34:15.595Z,13.03
2024-04-24T18:37:01.548Z,10.17
2024-04-24T18:39:47.046Z,14.23
2024-04-24T18:42:32.384Z,14.80
2024-04-24T18:45:17.782Z,11.80
2024-04-24T18:48:05.450Z,14.43
2024-04-24T18:50:52.526Z,10.90
2024-04-24T18:53:38.364Z,14.57
2024-04-24T18:56:23.520Z,12.70
2024-04-24T18:59:08.908Z,11.40
2024-04-24T19:01:54.013Z,15.30
2024-04-24T19:04:39.375Z,12.00
2024-04-24T19:07:24.817Z,15.57
2024-04-24T19:10:10.239Z,13.27
2024-04-24T19:12:55.728Z,11.93
2024-04-24T19:15:41.320Z,13.63
2024-04-24T19:18:26.782Z,12.27
2024-04-24T19:21:12.204Z,12.33
2024-04-24T19:23:59.050Z,13.70
2024-04-24T19:26:44.527Z,14.90
2024-04-24T19:29:30.083Z,14.00
2024-04-24T19:32:15.486Z,13.17
2024-04-24T19:35:00.945Z,12.00
2024-04-24T19:37:49.884Z,13.27
2024-04-24T19:40:35.276Z,13.80
2024-04-24T19:43:20.722Z,13.20
2024-04-24T19:46:09.944Z,17.33
2024-04-24T19:48:55.268Z,16.23
2024-04-24T19:51:40.770Z,14.80
2024-04-24T19:54:26.260Z,15.53
2024-04-24T19:57:11.750Z,18.50
2024-04-24T19:59:57.066Z,20.60
2024-04-24T20:02:42.612Z,17.43
2024-04-24T20:05:28.192Z,17.10
2024-04-24T20:08:13.757Z,13.73
2024-04-24T20:11:06.914Z,14.43
2024-04-24T20:13:52.603Z,97.83
2024-04-24T20:16:37.998Z,15.60
2024-04-24T20:19:23.622Z,15.03
2024-04-24T20:22:09.101Z,15.77
2024-04-24T20:24:54.745Z,17.13
2024-04-24T20:27:40.151Z,15.47
2024-04-24T20:30:25.433Z,16.33
2024-04-24T20:33:11.050Z,16.90
2024-04-24T20:35:56.487Z,16.13
2024-04-24T20:38:41.905Z,16.63
2024-04-24T20:41:27.146Z,15.17
2024-04-24T20:44:12.850Z,15.93
2024-04-24T20:46:58.063Z,16.20
2024-04-24T20:49:43.458Z,15.03
2024-04-24T20:52:28.896Z,18.37
2024-04-24T20:55:14.490Z,15.57
2024-04-24T20:57:59.946Z,16.40
2024-04-24T21:00:45.420Z,13.80
2024-04-24T21:03:30.965Z,15.40
2024-04-24T21:06:16.407Z,16.27
2024-04-24T21:09:02.275Z,17.50
2024-04-24T21:11:47.614Z,17.77
2024-04-24T21:14:33.199Z,16.37
2024-04-24T21:17:18.562Z,14.23
2024-04-24T21:20:04.036Z,16.10
2024-04-24T21:22:49.388Z,16.60
2024-04-24T21:25:37.993Z,14.37
2024-04-24T21:28:23.695Z,19.07
2024-04-24T21:31:08.914Z,18.60
2024-04-24T21:33:54.355Z,14.30
2024-04-24T21:36:39.848Z,16.33
2024-04-24T21:39:25.228Z,17.13
2024-04-24T21:42:11.007Z,19.67
2024-04-24T21:44:56.346Z,16.97
2024-04-24T21:47:41.775Z,14.80
2024-04-24T21:50:27.304Z,16.70
2024-04-24T21:53:12.339Z,15.90
2024-04-24T21:55:57.865Z,17.33
2024-04-24T21:58:43.189Z,16.83
2024-04-24T22:01:28.576Z,13.73
2024-04-24T22:04:14.079Z,18.53
2024-04-24T22:06:59.371Z,16.70
2024-04-24T22:09:44.855Z,16.03
2024-04-24T22:12:30.270Z,17.03
2024-04-24T22:15:15.672Z,16.17
2024-04-24T22:18:01.146Z,16.43
2024-04-24T22:20:46.450Z,15.70
2024-04-24T22:23:32.042Z,19.73
2024-04-24T22:26:17.481Z,15.97
2024-04-24T22:29:02.991Z,17.53
2024-04-24T22:31:49.171Z,13.63
2024-04-24T22:34:34.244Z,14.97
2024-04-24T22:37:19.413Z,15.83
2024-04-24T22:40:04.794Z,15.63
2024-04-24T22:42:49.869Z,16.83
2024-04-24T22:45:35.372Z,13.70
2024-04-24T22:48:20.847Z,17.00
2024-04-24T22:51:06.154Z,15.07
2024-04-24T22:53:51.684Z,13.90
2024-04-24T22:56:36.946Z,17.30
2024-04-24T22:59:22.428Z,14.80
2024-04-24T23:02:08.076Z,15.87
2024-04-24T23:04:53.600Z,16.00
2024-04-24T23:07:39.179Z,20.07
2024-04-24T23:10:24.813Z,15.63
2024-04-24T23:13:10.155Z,15.17
2024-04-24T23:15:55.536Z,16.27
2024-04-24T23:18:40.893Z,17.23
2024-04-24T23:21:26.280Z,16.57
2024-04-24T23:24:11.749Z,17.80
2024-04-24T23:26:57.088Z,19.70
2024-04-24T23:29:42.457Z,15.63
2024-04-24T23:32:27.951Z,15.17
2024-04-24T23:35:13.253Z,17.47
2024-04-24T23:37:58.820Z,16.70
2024-04-24T23:40:44.188Z,17.53
2024-04-24T23:43:29.780Z,17.27
2024-04-24T23:46:16.172Z,14.90
2024-04-24T23:49:01.419Z,15.87
2024-04-24T23:51:46.948Z,15.20
2024-04-24T23:54:32.353Z,14.77
2024-04-24T23:57:17.696Z,15.90
